sensor_id;sensor_type;location;lat;lon;timestamp;pressure;altitude;pressure_sealevel;temperature;humidity
70690;BME280;58267;51.156;17.044;2022-11-21T00:00:22;99484.94;;;-0.34;36.03
70690;BME280;58267;51.156;17.044;2022-11-21T00:02:47;99484.74;;;-0.50;37.43
70690;BME280;58267;51.156;17.044;2022-11-21T00:05:12;99478.91;;;-0.36;36.92
70690;BME280;58267;51.156;17.044;2022-11-21T00:07:37;99474.85;;;0.12;36.45
70690;BME280;58267;51.156;17.044;2022-11-21T00:10:03;99471.85;;;-0.15;35.83
70690;BME280;58267;51.156;17.044;2022-11-21T00:12:28;99475.25;;;0.00;36.16
70690;BME280;58267;51.156;17.044;2022-11-21T00:14:53;99472.79;;;0.06;36.31
70690;BME280;58267;51.156;17.044;2022-11-21T00:17:19;99473.14;;;0.14;36.59
70690;BME280;58267;51.156;17.044;2022-11-21T00:19:44;99471.62;;;0.14;36.22
70690;BME280;58267;51.156;17.044;2022-11-21T00:22:09;99470.38;;;0.16;36.61
70690;BME280;58267;51.156;17.044;2022-11-21T00:24:35;99470.29;;;0.22;37.57
70690;BME280;58267;51.156;17.044;2022-11-21T00:27:01;99473.49;;;0.51;37.76
70690;BME280;58267;51.156;17.044;2022-11-21T00:29:26;99467.92;;;0.47;37.54
70690;BME280;58267;51.156;17.044;2022-11-21T00:31:51;99467.08;;;0.54;37.92
70690;BME280;58267;51.156;17.044;2022-11-21T00:34:16;99463.34;;;0.22;37.89
70690;BME280;58267;51.156;17.044;2022-11-21T00:36:41;99466.88;;;0.22;37.60
70690;BME280;58267;51.156;17.044;2022-11-21T00:39:07;99467.39;;;0.59;37.67
70690;BME280;58267;51.156;17.044;2022-11-21T00:41:32;99465.40;;;-0.01;37.97
70690;BME280;58267;51.156;17.044;2022-11-21T00:43:57;99462.01;;;0.50;37.89
70690;BME280;58267;51.156;17.044;2022-11-21T00:46:22;99455.80;;;0.27;37.73
70690;BME280;58267;51.156;17.044;2022-11-21T00:48:48;99454.19;;;0.52;37.66
70690;BME280;58267;51.156;17.044;2022-11-21T00:51:13;99455.60;;;0.36;37.78
70690;BME280;58267;51.156;17.044;2022-11-21T00:53:39;99460.15;;;0.52;37.81
70690;BME280;58267;51.156;17.044;2022-11-21T00:56:04;99458.48;;;0.51;37.95
70690;BME280;58267;51.156;17.044;2022-11-21T00:58:29;99455.80;;;0.45;38.41
70690;BME280;58267;51.156;17.044;2022-11-21T01:03:20;99454.14;;;0.14;38.20
70690;BME280;58267;51.156;17.044;2022-11-21T01:05:46;99450.83;;;0.41;38.18
70690;BME280;58267;51.156;17.044;2022-11-21T01:08:12;99444.14;;;0.68;38.20
70690;BME280;58267;51.156;17.044;2022-11-21T01:10:38;99433.76;;;0.34;38.13
70690;BME280;58267;51.156;17.044;2022-11-21T01:13:03;99424.67;;;0.67;37.06
70690;BME280;58267;51.156;17.044;2022-11-21T01:15:29;99410.88;;;0.36;37.48
70690;BME280;58267;51.156;17.044;2022-11-21T01:17:54;99410.21;;;0.07;36.31
70690;BME280;58267;51.156;17.044;2022-11-21T01:20:20;99416.74;;;0.12;36.78
70690;BME280;58267;51.156;17.044;2022-11-21T01:22:45;99419.61;;;-0.23;37.26
70690;BME280;58267;51.156;17.044;2022-11-21T01:25:11;99415.19;;;-0.19;37.78
70690;BME280;58267;51.156;17.044;2022-11-21T01:27:37;99410.52;;;-0.01;37.94
70690;BME280;58267;51.156;17.044;2022-11-21T01:30:03;99403.98;;;-0.15;38.53
70690;BME280;58267;51.156;17.044;2022-11-21T01:32:28;99404.97;;;-0.06;38.80
70690;BME280;58267;51.156;17.044;2022-11-21T01:34:58;99403.39;;;0.04;38.92
70690;BME280;58267;51.156;17.044;2022-11-21T01:37:24;99403.06;;;0.10;39.23
70690;BME280;58267;51.156;17.044;2022-11-21T01:39:49;99399.66;;;0.34;39.03
70690;BME280;58267;51.156;17.044;2022-11-21T01:42:17;99397.02;;;0.32;39.28
70690;BME280;58267;51.156;17.044;2022-11-21T01:44:47;99391.83;;;0.44;39.26
70690;BME280;58267;51.156;17.044;2022-11-21T01:47:06;99386.22;;;0.43;39.53
70690;BME280;58267;51.156;17.044;2022-11-21T01:49:33;99380.17;;;0.60;39.50
70690;BME280;58267;51.156;17.044;2022-11-21T01:51:59;99380.82;;;0.73;39.51
70690;BME280;58267;51.156;17.044;2022-11-21T01:54:25;99385.65;;;0.37;39.57
70690;BME280;58267;51.156;17.044;2022-11-21T01:56:51;99382.79;;;0.81;39.34
70690;BME280;58267;51.156;17.044;2022-11-21T01:59:16;99379.80;;;0.73;39.25
70690;BME280;58267;51.156;17.044;2022-11-21T02:01:39;99377.27;;;1.22;39.44
70690;BME280;58267;51.156;17.044;2022-11-21T02:04:06;99373.98;;;1.12;39.51
70690;BME280;58267;51.156;17.044;2022-11-21T02:06:30;99357.79;;;1.23;39.45
70690;BME280;58267;51.156;17.044;2022-11-21T02:08:55;99353.92;;;0.98;39.50
70690;BME280;58267;51.156;17.044;2022-11-21T02:11:27;99360.67;;;1.02;39.54
70690;BME280;58267;51.156;17.044;2022-11-21T02:13:46;99364.53;;;1.13;39.41
70690;BME280;58267;51.156;17.044;2022-11-21T02:16:12;99369.40;;;1.21;39.26
70690;BME280;58267;51.156;17.044;2022-11-21T02:18:38;99371.51;;;1.32;39.32
70690;BME280;58267;51.156;17.044;2022-11-21T02:21:10;99360.36;;;1.30;39.42
70690;BME280;58267;51.156;17.044;2022-11-21T02:23:34;99359.09;;;1.31;39.51
70690;BME280;58267;51.156;17.044;2022-11-21T02:25:54;99349.87;;;1.41;39.36
70690;BME280;58267;51.156;17.044;2022-11-21T02:28:21;99343.06;;;1.51;39.35
70690;BME280;58267;51.156;17.044;2022-11-21T02:30:46;99333.83;;;1.51;39.51
70690;BME280;58267;51.156;17.044;2022-11-21T02:33:11;99330.81;;;1.64;39.33
70690;BME280;58267;51.156;17.044;2022-11-21T02:35:35;99326.98;;;1.78;39.33
70690;BME280;58267;51.156;17.044;2022-11-21T02:38:03;99324.18;;;1.87;38.91
70690;BME280;58267;51.156;17.044;2022-11-21T02:40:31;99320.43;;;1.82;39.41
70690;BME280;58267;51.156;17.044;2022-11-21T02:42:56;99316.80;;;1.90;39.37
70690;BME280;58267;51.156;17.044;2022-11-21T02:45:20;99313.93;;;1.60;39.59
70690;BME280;58267;51.156;17.044;2022-11-21T02:47:43;99307.49;;;1.75;39.44
70690;BME280;58267;51.156;17.044;2022-11-21T02:50:14;99302.55;;;1.76;39.54
70690;BME280;58267;51.156;17.044;2022-11-21T02:52:34;99298.96;;;1.81;39.45
70690;BME280;58267;51.156;17.044;2022-11-21T02:54:59;99293.95;;;2.05;39.49
70690;BME280;58267;51.156;17.044;2022-11-21T02:57:25;99298.71;;;1.85;39.69
70690;BME280;58267;51.156;17.044;2022-11-21T02:59:50;99295.43;;;2.13;39.56
70690;BME280;58267;51.156;17.044;2022-11-21T03:02:16;99295.65;;;1.87;39.78
70690;BME280;58267;51.156;17.044;2022-11-21T03:04:41;99283.51;;;2.02;39.50
70690;BME280;58267;51.156;17.044;2022-11-21T03:07:06;99276.65;;;2.04;39.60
70690;BME280;58267;51.156;17.044;2022-11-21T03:09:31;99268.24;;;2.10;39.56
70690;BME280;58267;51.156;17.044;2022-11-21T03:11:57;99269.85;;;2.22;39.51
70690;BME280;58267;51.156;17.044;2022-11-21T03:14:22;99269.42;;;2.34;39.32
70690;BME280;58267;51.156;17.044;2022-11-21T03:16:47;99264.96;;;2.37;39.23
70690;BME280;58267;51.156;17.044;2022-11-21T03:19:12;99263.67;;;2.26;39.08
70690;BME280;58267;51.156;17.044;2022-11-21T03:21:38;99261.37;;;2.34;39.11
70690;BME280;58267;51.156;17.044;2022-11-21T03:24:04;99251.50;;;2.42;39.04
70690;BME280;58267;51.156;17.044;2022-11-21T03:26:30;99245.14;;;2.72;38.85
70690;BME280;58267;51.156;17.044;2022-11-21T03:28:55;99237.26;;;2.71;38.81
70690;BME280;58267;51.156;17.044;2022-11-21T03:31:21;99232.39;;;2.53;39.09
70690;BME280;58267;51.156;17.044;2022-11-21T03:33:46;99233.85;;;2.90;38.79
70690;BME280;58267;51.156;17.044;2022-11-21T03:36:12;99230.03;;;2.83;38.97
70690;BME280;58267;51.156;17.044;2022-11-21T03:38:37;99225.57;;;2.98;38.79
70690;BME280;58267;51.156;17.044;2022-11-21T03:41:07;99221.95;;;2.79;38.90
70690;BME280;58267;51.156;17.044;2022-11-21T03:43:28;99218.03;;;2.78;38.86
70690;BME280;58267;51.156;17.044;2022-11-21T03:45:53;99207.75;;;2.86;38.99
70690;BME280;58267;51.156;17.044;2022-11-21T03:48:18;99202.01;;;3.09;38.75
70690;BME280;58267;51.156;17.044;2022-11-21T03:50:46;99194.09;;;2.69;39.05
70690;BME280;58267;51.156;17.044;2022-11-21T03:53:09;99199.59;;;2.75;39.11
70690;BME280;58267;51.156;17.044;2022-11-21T03:55:35;99196.64;;;3.10;38.59
70690;BME280;58267;51.156;17.044;2022-11-21T03:58:00;99195.77;;;2.85;38.94
70690;BME280;58267;51.156;17.044;2022-11-21T04:00:26;99193.59;;;2.73;39.18
70690;BME280;58267;51.156;17.044;2022-11-21T04:02:51;99194.11;;;2.52;39.13
70690;BME280;58267;51.156;17.044;2022-11-21T04:05:16;99187.11;;;2.87;39.02
70690;BME280;58267;51.156;17.044;2022-11-21T04:07:41;99179.81;;;2.82;39.07
70690;BME280;58267;51.156;17.044;2022-11-21T04:10:07;99181.00;;;2.63;38.99
70690;BME280;58267;51.156;17.044;2022-11-21T04:12:33;99180.18;;;2.91;38.86
70690;BME280;58267;51.156;17.044;2022-11-21T04:14:58;99175.02;;;2.87;38.97
70690;BME280;58267;51.156;17.044;2022-11-21T04:17:23;99172.80;;;2.82;39.12
70690;BME280;58267;51.156;17.044;2022-11-21T04:19:49;99175.61;;;2.77;39.22
70690;BME280;58267;51.156;17.044;2022-11-21T04:22:15;99174.20;;;2.76;39.25
70690;BME280;58267;51.156;17.044;2022-11-21T04:24:41;99168.33;;;2.49;39.29
70690;BME280;58267;51.156;17.044;2022-11-21T04:27:07;99167.96;;;2.82;39.22
70690;BME280;58267;51.156;17.044;2022-11-21T04:29:32;99159.07;;;2.75;39.39
70690;BME280;58267;51.156;17.044;2022-11-21T04:31:59;99154.09;;;2.80;39.33
70690;BME280;58267;51.156;17.044;2022-11-21T04:34:25;99146.50;;;2.67;39.58
70690;BME280;58267;51.156;17.044;2022-11-21T04:36:51;99140.34;;;2.63;39.25
70690;BME280;58267;51.156;17.044;2022-11-21T04:39:16;99140.17;;;2.88;39.40
70690;BME280;58267;51.156;17.044;2022-11-21T04:41:42;99129.32;;;2.85;39.54
70690;BME280;58267;51.156;17.044;2022-11-21T04:44:07;99128.14;;;2.86;39.47
70690;BME280;58267;51.156;17.044;2022-11-21T04:46:32;99126.42;;;2.86;39.58
70690;BME280;58267;51.156;17.044;2022-11-21T04:48:58;99117.46;;;2.78;39.77
70690;BME280;58267;51.156;17.044;2022-11-21T04:51:24;99119.39;;;2.99;39.46
70690;BME280;58267;51.156;17.044;2022-11-21T04:53:49;99125.02;;;2.51;39.54
70690;BME280;58267;51.156;17.044;2022-11-21T04:56:15;99125.03;;;3.00;39.55
70690;BME280;58267;51.156;17.044;2022-11-21T04:58:40;99121.75;;;2.92;39.82
70690;BME280;58267;51.156;17.044;2022-11-21T05:01:10;99117.39;;;2.54;39.70
70690;BME280;58267;51.156;17.044;2022-11-21T05:03:31;99115.34;;;2.59;39.73
70690;BME280;58267;51.156;17.044;2022-11-21T05:05:57;99117.11;;;2.82;39.71
70690;BME280;58267;51.156;17.044;2022-11-21T05:08:22;99110.41;;;3.16;39.59
70690;BME280;58267;51.156;17.044;2022-11-21T05:10:48;99104.24;;;2.91;39.67
70690;BME280;58267;51.156;17.044;2022-11-21T05:13:14;99099.43;;;3.30;39.54
70690;BME280;58267;51.156;17.044;2022-11-21T05:15:39;99102.53;;;3.27;39.53
70690;BME280;58267;51.156;17.044;2022-11-21T05:18:05;99101.36;;;3.31;39.56
70690;BME280;58267;51.156;17.044;2022-11-21T05:20:30;99096.80;;;3.31;39.64
70690;BME280;58267;51.156;17.044;2022-11-21T05:22:56;99094.32;;;3.34;39.55
70690;BME280;58267;51.156;17.044;2022-11-21T05:25:21;99089.49;;;3.04;39.58
70690;BME280;58267;51.156;17.044;2022-11-21T05:27:46;99087.56;;;2.95;39.37
70690;BME280;58267;51.156;17.044;2022-11-21T05:30:13;99082.15;;;3.39;39.49
70690;BME280;58267;51.156;17.044;2022-11-21T05:32:38;99080.09;;;3.03;39.20
70690;BME280;58267;51.156;17.044;2022-11-21T05:35:03;99071.25;;;3.21;39.32
70690;BME280;58267;51.156;17.044;2022-11-21T05:37:28;99068.51;;;3.02;39.15
70690;BME280;58267;51.156;17.044;2022-11-21T05:39:53;99062.72;;;3.11;39.19
70690;BME280;58267;51.156;17.044;2022-11-21T05:42:19;99058.31;;;3.33;39.10
70690;BME280;58267;51.156;17.044;2022-11-21T05:44:44;99057.58;;;3.18;38.94
70690;BME280;58267;51.156;17.044;2022-11-21T05:47:09;99056.85;;;3.03;39.23
70690;BME280;58267;51.156;17.044;2022-11-21T05:49:34;99055.88;;;3.04;39.07
70690;BME280;58267;51.156;17.044;2022-11-21T05:51:59;99050.22;;;3.03;39.22
70690;BME280;58267;51.156;17.044;2022-11-21T05:54:25;99045.22;;;3.42;39.16
70690;BME280;58267;51.156;17.044;2022-11-21T05:56:51;99039.93;;;3.30;38.89
70690;BME280;58267;51.156;17.044;2022-11-21T05:59:17;99036.43;;;3.52;39.01
70690;BME280;58267;51.156;17.044;2022-11-21T06:01:42;99039.07;;;3.45;38.76
70690;BME280;58267;51.156;17.044;2022-11-21T06:04:08;99033.27;;;3.27;38.66
70690;BME280;58267;51.156;17.044;2022-11-21T06:06:34;99036.67;;;3.39;38.80
70690;BME280;58267;51.156;17.044;2022-11-21T06:08:59;99030.83;;;3.18;38.79
70690;BME280;58267;51.156;17.044;2022-11-21T06:11:24;99032.51;;;3.14;38.85
70690;BME280;58267;51.156;17.044;2022-11-21T06:13:50;99028.58;;;3.46;38.74
70690;BME280;58267;51.156;17.044;2022-11-21T06:16:16;99024.01;;;3.14;38.83
70690;BME280;58267;51.156;17.044;2022-11-21T06:18:42;99026.13;;;3.05;39.01
70690;BME280;58267;51.156;17.044;2022-11-21T06:21:08;99026.22;;;3.45;39.15
70690;BME280;58267;51.156;17.044;2022-11-21T06:23:33;99020.09;;;3.59;38.97
70690;BME280;58267;51.156;17.044;2022-11-21T06:26:01;99013.04;;;3.07;39.01
70690;BME280;58267;51.156;17.044;2022-11-21T06:28:23;99014.88;;;3.33;38.94
70690;BME280;58267;51.156;17.044;2022-11-21T06:30:49;99012.51;;;3.00;39.09
70690;BME280;58267;51.156;17.044;2022-11-21T06:33:14;99014.78;;;3.37;39.29
70690;BME280;58267;51.156;17.044;2022-11-21T06:35:42;99013.77;;;3.17;39.24
70690;BME280;58267;51.156;17.044;2022-11-21T06:38:05;99006.77;;;3.24;39.16
70690;BME280;58267;51.156;17.044;2022-11-21T06:40:30;99008.93;;;3.00;39.20
70690;BME280;58267;51.156;17.044;2022-11-21T06:42:56;99013.58;;;2.86;39.49
70690;BME280;58267;51.156;17.044;2022-11-21T06:45:21;99018.30;;;3.17;39.39
70690;BME280;58267;51.156;17.044;2022-11-21T06:47:47;99023.58;;;3.23;39.28
70690;BME280;58267;51.156;17.044;2022-11-21T06:50:13;99016.36;;;3.16;39.04
70690;BME280;58267;51.156;17.044;2022-11-21T06:52:38;99012.51;;;3.16;39.05
70690;BME280;58267;51.156;17.044;2022-11-21T06:55:04;99010.68;;;3.27;39.25
70690;BME280;58267;51.156;17.044;2022-11-21T06:57:28;99012.22;;;3.19;39.11
70690;BME280;58267;51.156;17.044;2022-11-21T06:59:54;99007.83;;;3.18;39.24
70690;BME280;58267;51.156;17.044;2022-11-21T07:02:20;99010.28;;;3.14;39.27
70690;BME280;58267;51.156;17.044;2022-11-21T07:04:45;99008.95;;;3.13;39.43
70690;BME280;58267;51.156;17.044;2022-11-21T07:07:10;99009.66;;;3.21;39.30
70690;BME280;58267;51.156;17.044;2022-11-21T07:09:36;99011.02;;;3.40;39.08
70690;BME280;58267;51.156;17.044;2022-11-21T07:12:01;99011.27;;;3.15;39.56
70690;BME280;58267;51.156;17.044;2022-11-21T07:14:27;99011.34;;;3.51;39.40
70690;BME280;58267;51.156;17.044;2022-11-21T07:16:52;99010.07;;;3.16;39.70
70690;BME280;58267;51.156;17.044;2022-11-21T07:19:18;99008.34;;;3.38;39.37
70690;BME280;58267;51.156;17.044;2022-11-21T07:21:44;99007.73;;;3.24;39.32
70690;BME280;58267;51.156;17.044;2022-11-21T07:24:10;99006.82;;;3.52;39.35
70690;BME280;58267;51.156;17.044;2022-11-21T07:26:35;99004.42;;;3.34;39.24
70690;BME280;58267;51.156;17.044;2022-11-21T07:29:01;99005.12;;;3.76;39.09
70690;BME280;58267;51.156;17.044;2022-11-21T07:31:26;99007.41;;;3.53;39.51
70690;BME280;58267;51.156;17.044;2022-11-21T07:33:52;99010.78;;;3.69;39.31
70690;BME280;58267;51.156;17.044;2022-11-21T07:36:18;99008.72;;;3.41;39.44
70690;BME280;58267;51.156;17.044;2022-11-21T07:38:44;99012.13;;;3.77;39.34
70690;BME280;58267;51.156;17.044;2022-11-21T07:41:08;99011.89;;;3.81;39.47
70690;BME280;58267;51.156;17.044;2022-11-21T07:43:34;99011.95;;;4.03;39.70
70690;BME280;58267;51.156;17.044;2022-11-21T07:46:00;99010.16;;;3.88;39.60
70690;BME280;58267;51.156;17.044;2022-11-21T07:48:24;99011.68;;;3.98;39.47
70690;BME280;58267;51.156;17.044;2022-11-21T07:50:50;99005.76;;;3.80;39.58
70690;BME280;58267;51.156;17.044;2022-11-21T07:53:15;99003.39;;;3.97;39.33
70690;BME280;58267;51.156;17.044;2022-11-21T07:55:40;99000.72;;;4.27;39.26
70690;BME280;58267;51.156;17.044;2022-11-21T07:58:07;98997.76;;;4.16;39.20
70690;BME280;58267;51.156;17.044;2022-11-21T08:00:32;98999.00;;;4.13;39.39
70690;BME280;58267;51.156;17.044;2022-11-21T08:02:57;98998.18;;;4.34;39.46
70690;BME280;58267;51.156;17.044;2022-11-21T08:05:22;98997.72;;;4.53;39.01
70690;BME280;58267;51.156;17.044;2022-11-21T08:07:47;98998.44;;;4.51;39.66
70690;BME280;58267;51.156;17.044;2022-11-21T08:10:14;98999.02;;;4.65;39.16
70690;BME280;58267;51.156;17.044;2022-11-21T08:12:39;98998.59;;;4.54;39.12
70690;BME280;58267;51.156;17.044;2022-11-21T08:15:05;98998.66;;;4.66;39.09
70690;BME280;58267;51.156;17.044;2022-11-21T08:17:30;98998.93;;;4.83;38.78
70690;BME280;58267;51.156;17.044;2022-11-21T08:19:56;98993.62;;;5.00;38.57
70690;BME280;58267;51.156;17.044;2022-11-21T08:22:22;98994.61;;;4.87;38.82
70690;BME280;58267;51.156;17.044;2022-11-21T08:24:47;98995.28;;;5.01;38.66
70690;BME280;58267;51.156;17.044;2022-11-21T08:27:13;98990.27;;;4.98;39.02
70690;BME280;58267;51.156;17.044;2022-11-21T08:29:38;98994.00;;;4.94;39.05
70690;BME280;58267;51.156;17.044;2022-11-21T08:32:04;98997.57;;;5.05;39.09
70690;BME280;58267;51.156;17.044;2022-11-21T08:34:29;98998.30;;;5.18;39.08
70690;BME280;58267;51.156;17.044;2022-11-21T08:36:55;99001.17;;;5.10;39.20
70690;BME280;58267;51.156;17.044;2022-11-21T08:39:20;98995.89;;;5.32;38.89
70690;BME280;58267;51.156;17.044;2022-11-21T08:41:45;98998.27;;;5.24;39.23
70690;BME280;58267;51.156;17.044;2022-11-21T08:44:11;98995.95;;;5.42;38.82
70690;BME280;58267;51.156;17.044;2022-11-21T08:46:37;98996.34;;;5.47;38.98
70690;BME280;58267;51.156;17.044;2022-11-21T08:49:03;98998.76;;;5.42;39.22
70690;BME280;58267;51.156;17.044;2022-11-21T08:51:28;99007.14;;;5.41;39.26
70690;BME280;58267;51.156;17.044;2022-11-21T08:53:53;99003.73;;;5.47;39.19
70690;BME280;58267;51.156;17.044;2022-11-21T08:56:19;99002.92;;;5.12;39.09
70690;BME280;58267;51.156;17.044;2022-11-21T08:58:44;98992.88;;;5.75;38.66
70690;BME280;58267;51.156;17.044;2022-11-21T09:01:10;98996.96;;;5.81;38.86
70690;BME280;58267;51.156;17.044;2022-11-21T09:03:35;98999.58;;;6.01;38.60
70690;BME280;58267;51.156;17.044;2022-11-21T09:06:01;99003.91;;;5.74;38.24
70690;BME280;58267;51.156;17.044;2022-11-21T09:08:31;99004.48;;;6.13;38.70
70690;BME280;58267;51.156;17.044;2022-11-21T09:10:57;99006.39;;;5.88;38.95
70690;BME280;58267;51.156;17.044;2022-11-21T09:13:21;99009.10;;;5.76;38.89
70690;BME280;58267;51.156;17.044;2022-11-21T09:15:47;99008.41;;;5.91;39.01
70690;BME280;58267;51.156;17.044;2022-11-21T09:18:12;99012.27;;;6.08;38.84
70690;BME280;58267;51.156;17.044;2022-11-21T09:20:43;99015.13;;;6.04;39.10
70690;BME280;58267;51.156;17.044;2022-11-21T09:23:08;99010.43;;;6.25;39.01
70690;BME280;58267;51.156;17.044;2022-11-21T09:25:29;99011.71;;;6.40;38.74
70690;BME280;58267;51.156;17.044;2022-11-21T09:27:57;99014.13;;;6.35;38.87
70690;BME280;58267;51.156;17.044;2022-11-21T09:30:19;99014.32;;;6.37;39.06
70690;BME280;58267;51.156;17.044;2022-11-21T09:32:45;99012.63;;;6.48;39.13
70690;BME280;58267;51.156;17.044;2022-11-21T09:35:11;99014.47;;;6.39;38.99
70690;BME280;58267;51.156;17.044;2022-11-21T09:37:40;99020.02;;;6.73;38.58
70690;BME280;58267;51.156;17.044;2022-11-21T09:40:01;99016.81;;;6.94;38.48
70690;BME280;58267;51.156;17.044;2022-11-21T09:42:39;99015.90;;;6.75;38.63
70690;BME280;58267;51.156;17.044;2022-11-21T09:45:02;99016.75;;;6.67;39.00
70690;BME280;58267;51.156;17.044;2022-11-21T09:47:25;99015.79;;;6.76;39.00
70690;BME280;58267;51.156;17.044;2022-11-21T09:49:47;99014.65;;;7.04;38.68
70690;BME280;58267;51.156;17.044;2022-11-21T09:52:08;99014.81;;;6.76;38.78
70690;BME280;58267;51.156;17.044;2022-11-21T09:54:37;99014.35;;;6.73;38.84
70690;BME280;58267;51.156;17.044;2022-11-21T09:57:00;99015.77;;;7.11;38.87
70690;BME280;58267;51.156;17.044;2022-11-21T09:59:34;99015.94;;;6.73;39.01
70690;BME280;58267;51.156;17.044;2022-11-21T10:01:51;99016.65;;;7.04;38.96
70690;BME280;58267;51.156;17.044;2022-11-21T10:04:24;99015.25;;;6.70;39.75
70690;BME280;58267;51.156;17.044;2022-11-21T10:06:46;99013.09;;;6.84;39.97
70690;BME280;58267;51.156;17.044;2022-11-21T10:09:12;99010.35;;;6.94;39.93
70690;BME280;58267;51.156;17.044;2022-11-21T10:11:40;99005.90;;;7.21;39.85
70690;BME280;58267;51.156;17.044;2022-11-21T10:14:05;98998.25;;;6.94;40.04
70690;BME280;58267;51.156;17.044;2022-11-21T10:16:28;98999.69;;;6.98;40.24
70690;BME280;58267;51.156;17.044;2022-11-21T10:19:02;98996.63;;;7.20;39.88
70690;BME280;58267;51.156;17.044;2022-11-21T10:21:22;98999.67;;;7.31;40.19
70690;BME280;58267;51.156;17.044;2022-11-21T10:23:53;99001.75;;;7.44;40.34
70690;BME280;58267;51.156;17.044;2022-11-21T10:26:13;99000.64;;;7.34;40.58
70690;BME280;58267;51.156;17.044;2022-11-21T10:28:37;98998.63;;;7.18;40.06
70690;BME280;58267;51.156;17.044;2022-11-21T10:30:56;98999.18;;;7.41;40.30
70690;BME280;58267;51.156;17.044;2022-11-21T10:33:26;98998.19;;;7.76;39.74
70690;BME280;58267;51.156;17.044;2022-11-21T10:35:50;98998.52;;;7.47;40.09
70690;BME280;58267;51.156;17.044;2022-11-21T10:38:20;98992.35;;;7.66;39.68
70690;BME280;58267;51.156;17.044;2022-11-21T10:40:41;98994.07;;;8.01;40.51
70690;BME280;58267;51.156;17.044;2022-11-21T10:43:06;98995.63;;;8.00;40.23
70690;BME280;58267;51.156;17.044;2022-11-21T10:45:29;98994.91;;;7.88;39.83
70690;BME280;58267;51.156;17.044;2022-11-21T10:47:55;98996.80;;;8.02;39.92
70690;BME280;58267;51.156;17.044;2022-11-21T10:50:31;98998.52;;;7.96;39.09
70690;BME280;58267;51.156;17.044;2022-11-21T10:52:49;99001.90;;;8.29;39.35
70690;BME280;58267;51.156;17.044;2022-11-21T10:55:13;98999.05;;;8.06;39.26
70690;BME280;58267;51.156;17.044;2022-11-21T10:57:40;98997.22;;;8.12;39.31
70690;BME280;58267;51.156;17.044;2022-11-21T11:02:28;98991.23;;;8.22;38.76
70690;BME280;58267;51.156;17.044;2022-11-21T11:07:26;98993.56;;;8.28;38.69
70690;BME280;58267;51.156;17.044;2022-11-21T11:09:45;98995.52;;;8.31;38.53
70690;BME280;58267;51.156;17.044;2022-11-21T11:12:20;98994.66;;;8.66;38.40
70690;BME280;58267;51.156;17.044;2022-11-21T11:14:37;98994.63;;;8.40;38.28
70690;BME280;58267;51.156;17.044;2022-11-21T11:17:02;98995.02;;;8.49;38.57
70690;BME280;58267;51.156;17.044;2022-11-21T11:19:30;99000.88;;;8.57;38.26
70690;BME280;58267;51.156;17.044;2022-11-21T11:21:53;99002.59;;;8.60;38.46
70690;BME280;58267;51.156;17.044;2022-11-21T11:24:24;99006.43;;;8.59;38.51
70690;BME280;58267;51.156;17.044;2022-11-21T11:26:57;99008.53;;;8.69;38.61
70690;BME280;58267;51.156;17.044;2022-11-21T11:29:13;99014.96;;;8.77;38.61
70690;BME280;58267;51.156;17.044;2022-11-21T11:31:41;99016.38;;;8.73;38.56
70690;BME280;58267;51.156;17.044;2022-11-21T11:34:01;99018.25;;;8.77;38.45
70690;BME280;58267;51.156;17.044;2022-11-21T11:36:35;99018.46;;;8.55;38.41
70690;BME280;58267;51.156;17.044;2022-11-21T11:38:57;99021.08;;;8.98;38.58
70690;BME280;58267;51.156;17.044;2022-11-21T11:41:26;99019.91;;;8.64;38.89
70690;BME280;58267;51.156;17.044;2022-11-21T11:43:50;99018.47;;;8.74;38.34
70690;BME280;58267;51.156;17.044;2022-11-21T11:46:19;99022.64;;;8.81;38.60
70690;BME280;58267;51.156;17.044;2022-11-21T11:48:35;99023.65;;;8.36;38.65
70690;BME280;58267;51.156;17.044;2022-11-21T11:51:02;99023.43;;;8.63;38.69
70690;BME280;58267;51.156;17.044;2022-11-21T11:53:27;99020.96;;;8.64;38.66
70690;BME280;58267;51.156;17.044;2022-11-21T11:55:53;99020.86;;;8.73;38.86
70690;BME280;58267;51.156;17.044;2022-11-21T11:58:22;99022.16;;;8.85;38.92
70690;BME280;58267;51.156;17.044;2022-11-21T12:00:45;99026.53;;;8.61;39.16
70690;BME280;58267;51.156;17.044;2022-11-21T12:03:10;99036.32;;;8.51;39.10
70690;BME280;58267;51.156;17.044;2022-11-21T12:05:33;99034.45;;;8.34;39.50
70690;BME280;58267;51.156;17.044;2022-11-21T12:08:09;99040.74;;;8.38;39.54
70690;BME280;58267;51.156;17.044;2022-11-21T12:10:36;99045.78;;;8.15;40.02
70690;BME280;58267;51.156;17.044;2022-11-21T12:12:53;99051.35;;;8.39;39.54
70690;BME280;58267;51.156;17.044;2022-11-21T12:15:18;99051.33;;;8.33;40.16
70690;BME280;58267;51.156;17.044;2022-11-21T12:17:46;99061.67;;;7.48;41.21
70690;BME280;58267;51.156;17.044;2022-11-21T12:20:11;99063.70;;;7.41;41.51
70690;BME280;58267;51.156;17.044;2022-11-21T12:22:32;99067.36;;;5.77;44.01
70690;BME280;58267;51.156;17.044;2022-11-21T12:24:57;99074.50;;;5.11;44.92
70690;BME280;58267;51.156;17.044;2022-11-21T12:27:29;99076.82;;;6.12;44.26
70690;BME280;58267;51.156;17.044;2022-11-21T12:30:00;99082.58;;;6.42;43.63
70690;BME280;58267;51.156;17.044;2022-11-21T12:32:26;99084.54;;;6.66;42.94
70690;BME280;58267;51.156;17.044;2022-11-21T12:34:53;99092.69;;;5.43;44.63
70690;BME280;58267;51.156;17.044;2022-11-21T12:37:16;99098.70;;;5.24;45.11
70690;BME280;58267;51.156;17.044;2022-11-21T12:39:41;99103.93;;;4.79;45.63
70690;BME280;58267;51.156;17.044;2022-11-21T12:42:04;99105.27;;;4.20;47.10
70690;BME280;58267;51.156;17.044;2022-11-21T12:44:34;99100.31;;;5.29;44.99
70690;BME280;58267;51.156;17.044;2022-11-21T12:46:57;99103.45;;;5.85;43.40
70690;BME280;58267;51.156;17.044;2022-11-21T12:49:19;99105.69;;;6.44;42.85
70690;BME280;58267;51.156;17.044;2022-11-21T12:51:49;99115.77;;;5.53;44.59
70690;BME280;58267;51.156;17.044;2022-11-21T12:54:13;99116.69;;;4.59;46.77
70690;BME280;58267;51.156;17.044;2022-11-21T12:56:36;99119.23;;;4.54;46.78